sensor_id;sensor_type;location;lat;lon;timestamp;temperature;humidity
60242;SHT30;46103;52.076;113.488;2023-12-20T00:01:00;-26.75;64.71
60242;SHT30;46103;52.076;113.488;2023-12-20T00:04:13;-26.71;64.42
60242;SHT30;46103;52.076;113.488;2023-12-20T00:07:29;-26.68;64.20
60242;SHT30;46103;52.076;113.488;2023-12-20T00:10:48;-26.70;64.00
60242;SHT30;46103;52.076;113.488;2023-12-20T00:14:02;-26.77;64.14
60242;SHT30;46103;52.076;113.488;2023-12-20T00:17:17;-26.84;64.04
60242;SHT30;46103;52.076;113.488;2023-12-20T00:20:28;-26.94;64.20
60242;SHT30;46103;52.076;113.488;2023-12-20T00:23:41;-26.88;64.22
60242;SHT30;46103;52.076;113.488;2023-12-20T00:26:55;-26.71;64.43
60242;SHT30;46103;52.076;113.488;2023-12-20T00:30:09;-26.70;64.97
60242;SHT30;46103;52.076;113.488;2023-12-20T00:33:20;-26.64;65.05
60242;SHT30;46103;52.076;113.488;2023-12-20T00:36:28;-26.65;64.84
60242;SHT30;46103;52.076;113.488;2023-12-20T00:39:40;-26.60;64.89
60242;SHT30;46103;52.076;113.488;2023-12-20T00:42:51;-26.58;64.76
60242;SHT30;46103;52.076;113.488;2023-12-20T00:46:00;-26.74;64.25
60242;SHT30;46103;52.076;113.488;2023-12-20T00:49:11;-26.88;63.45
60242;SHT30;46103;52.076;113.488;2023-12-20T00:52:22;-26.91;63.53
60242;SHT30;46103;52.076;113.488;2023-12-20T00:55:35;-26.72;63.63
60242;SHT30;46103;52.076;113.488;2023-12-20T00:58:46;-26.65;63.33
60242;SHT30;46103;52.076;113.488;2023-12-20T01:02:02;-26.58;63.18
60242;SHT30;46103;52.076;113.488;2023-12-20T01:05:12;-26.54;63.27
60242;SHT30;46103;52.076;113.488;2023-12-20T01:08:21;-26.47;63.32
60242;SHT30;46103;52.076;113.488;2023-12-20T01:11:31;-26.36;63.04
60242;SHT30;46103;52.076;113.488;2023-12-20T01:14:42;-26.35;62.96
60242;SHT30;46103;52.076;113.488;2023-12-20T01:17:51;-26.19;62.88
60242;SHT30;46103;52.076;113.488;2023-12-20T01:20:55;-26.11;62.51
60242;SHT30;46103;52.076;113.488;2023-12-20T01:24:05;-25.94;61.96
60242;SHT30;46103;52.076;113.488;2023-12-20T01:27:24;-26.02;60.95
60242;SHT30;46103;52.076;113.488;2023-12-20T01:30:30;-26.04;60.94
60242;SHT30;46103;52.076;113.488;2023-12-20T01:33:37;-26.19;60.66
60242;SHT30;46103;52.076;113.488;2023-12-20T01:36:41;-26.09;61.54
60242;SHT30;46103;52.076;113.488;2023-12-20T01:39:45;-26.15;61.84
60242;SHT30;46103;52.076;113.488;2023-12-20T01:43:06;-26.08;62.13
60242;SHT30;46103;52.076;113.488;2023-12-20T01:46:12;-26.18;61.77
60242;SHT30;46103;52.076;113.488;2023-12-20T01:52:54;-26.15;62.20
60242;SHT30;46103;52.076;113.488;2023-12-20T01:56:02;-26.08;62.23
60242;SHT30;46103;52.076;113.488;2023-12-20T01:59:11;-25.80;62.08
60242;SHT30;46103;52.076;113.488;2023-12-20T02:02:34;-25.74;61.25
60242;SHT30;46103;52.076;113.488;2023-12-20T02:05:55;-25.49;61.22
60242;SHT30;46103;52.076;113.488;2023-12-20T02:09:02;-25.38;60.65
60242;SHT30;46103;52.076;113.488;2023-12-20T02:12:12;-25.17;60.30
60242;SHT30;46103;52.076;113.488;2023-12-20T02:15:23;-24.80;59.91
60242;SHT30;46103;52.076;113.488;2023-12-20T02:18:39;-24.72;59.00
60242;SHT30;46103;52.076;113.488;2023-12-20T02:21:43;-24.53;58.61
60242;SHT30;46103;52.076;113.488;2023-12-20T02:24:48;-24.41;58.00
60242;SHT30;46103;52.076;113.488;2023-12-20T02:27:52;-24.42;57.61
60242;SHT30;46103;52.076;113.488;2023-12-20T02:30:57;-24.34;57.48
60242;SHT30;46103;52.076;113.488;2023-12-20T02:34:01;-24.28;57.13
60242;SHT30;46103;52.076;113.488;2023-12-20T02:37:07;-24.09;57.06
60242;SHT30;46103;52.076;113.488;2023-12-20T02:40:11;-23.90;56.50
60242;SHT30;46103;52.076;113.488;2023-12-20T02:43:15;-24.02;55.52
60242;SHT30;46103;52.076;113.488;2023-12-20T02:46:18;-24.13;55.26
60242;SHT30;46103;52.076;113.488;2023-12-20T02:49:26;-24.02;56.06
60242;SHT30;46103;52.076;113.488;2023-12-20T02:52:31;-23.99;55.92
60242;SHT30;46103;52.076;113.488;2023-12-20T02:55:35;-24.12;55.22
60242;SHT30;46103;52.076;113.488;2023-12-20T02:58:40;-24.13;55.16
60242;SHT30;46103;52.076;113.488;2023-12-20T03:01:46;-23.95;55.38
60242;SHT30;46103;52.076;113.488;2023-12-20T03:04:50;-23.79;55.12
60242;SHT30;46103;52.076;113.488;2023-12-20T03:07:56;-23.88;54.34
60242;SHT30;46103;52.076;113.488;2023-12-20T03:11:07;-24.16;54.37
60242;SHT30;46103;52.076;113.488;2023-12-20T03:14:11;-24.20;55.04
60242;SHT30;46103;52.076;113.488;2023-12-20T03:17:18;-24.02;55.39
60242;SHT30;46103;52.076;113.488;2023-12-20T03:20:30;-23.88;55.18
60242;SHT30;46103;52.076;113.488;2023-12-20T03:23:41;-24.02;54.92
60242;SHT30;46103;52.076;113.488;2023-12-20T03:26:58;-24.25;55.23
60242;SHT30;46103;52.076;113.488;2023-12-20T03:33:27;-24.04;56.54
60242;SHT30;46103;52.076;113.488;2023-12-20T03:37:26;-23.82;56.13
60242;SHT30;46103;52.076;113.488;2023-12-20T03:40:30;-23.48;56.37
60242;SHT30;46103;52.076;113.488;2023-12-20T03:43:34;-23.62;55.59
60242;SHT30;46103;52.076;113.488;2023-12-20T03:46:39;-23.95;55.89
60242;SHT30;46103;52.076;113.488;2023-12-20T03:49:43;-23.88;56.76
60242;SHT30;46103;52.076;113.488;2023-12-20T03:52:47;-24.04;57.01
60242;SHT30;46103;52.076;113.488;2023-12-20T03:55:51;-23.83;57.82
60242;SHT30;46103;52.076;113.488;2023-12-20T03:58:56;-23.85;57.56
60242;SHT30;46103;52.076;113.488;2023-12-20T04:01:59;-23.74;57.21
60242;SHT30;46103;52.076;113.488;2023-12-20T04:05:07;-23.82;56.96
60242;SHT30;46103;52.076;113.488;2023-12-20T04:08:11;-23.64;57.98
60242;SHT30;46103;52.076;113.488;2023-12-20T04:11:15;-23.57;57.88
60242;SHT30;46103;52.076;113.488;2023-12-20T04:14:20;-23.47;57.42
60242;SHT30;46103;52.076;113.488;2023-12-20T04:17:24;-23.43;57.77
60242;SHT30;46103;52.076;113.488;2023-12-20T04:20:28;-23.23;57.80
60242;SHT30;46103;52.076;113.488;2023-12-20T04:23:33;-23.13;57.63
60242;SHT30;46103;52.076;113.488;2023-12-20T04:26:37;-23.02;57.60
60242;SHT30;46103;52.076;113.488;2023-12-20T04:29:40;-22.89;57.31
60242;SHT30;46103;52.076;113.488;2023-12-20T04:32:44;-22.68;57.28
60242;SHT30;46103;52.076;113.488;2023-12-20T04:35:48;-22.48;56.93
60242;SHT30;46103;52.076;113.488;2023-12-20T04:38:59;-22.19;56.94
60242;SHT30;46103;52.076;113.488;2023-12-20T04:42:10;-21.71;56.85
60242;SHT30;46103;52.076;113.488;2023-12-20T04:45:17;-21.60;55.59
60242;SHT30;46103;52.076;113.488;2023-12-20T04:48:22;-21.25;55.53
60242;SHT30;46103;52.076;113.488;2023-12-20T04:51:26;-20.87;55.04
60242;SHT30;46103;52.076;113.488;2023-12-20T04:54:31;-20.52;54.45
60242;SHT30;46103;52.076;113.488;2023-12-20T04:57:50;-20.35;53.46
60242;SHT30;46103;52.076;113.488;2023-12-20T05:01:48;-20.43;52.67
60242;SHT30;46103;52.076;113.488;2023-12-20T05:05:33;-20.37;52.87
60242;SHT30;46103;52.076;113.488;2023-12-20T05:08:46;-20.60;52.84
60242;SHT30;46103;52.076;113.488;2023-12-20T05:12:04;-20.53;53.28
60242;SHT30;46103;52.076;113.488;2023-12-20T05:15:13;-20.19;53.61
60242;SHT30;46103;52.076;113.488;2023-12-20T05:18:18;-20.47;52.65
60242;SHT30;46103;52.076;113.488;2023-12-20T05:21:25;-20.36;53.66
60242;SHT30;46103;52.076;113.488;2023-12-20T05:24:29;-19.93;53.82
60242;SHT30;46103;52.076;113.488;2023-12-20T05:27:33;-19.80;52.92
60242;SHT30;46103;52.076;113.488;2023-12-20T05:30:37;-19.73;52.60
60242;SHT30;46103;52.076;113.488;2023-12-20T05:33:41;-19.40;52.99
60242;SHT30;46103;52.076;113.488;2023-12-20T05:36:46;-19.43;52.10
60242;SHT30;46103;52.076;113.488;2023-12-20T05:39:50;-19.40;52.37
60242;SHT30;46103;52.076;113.488;2023-12-20T05:42:55;-19.10;52.68
60242;SHT30;46103;52.076;113.488;2023-12-20T05:45:59;-19.00;52.03
60242;SHT30;46103;52.076;113.488;2023-12-20T05:49:04;-19.01;51.27
60242;SHT30;46103;52.076;113.488;2023-12-20T05:52:08;-18.70;51.96
60242;SHT30;46103;52.076;113.488;2023-12-20T05:55:14;-18.44;51.85
60242;SHT30;46103;52.076;113.488;2023-12-20T05:58:28;-18.51;50.61
60242;SHT30;46103;52.076;113.488;2023-12-20T06:01:38;-18.34;50.76
60242;SHT30;46103;52.076;113.488;2023-12-20T06:04:44;-18.22;50.46
60242;SHT30;46103;52.076;113.488;2023-12-20T06:07:55;-18.22;50.07
60242;SHT30;46103;52.076;113.488;2023-12-20T06:11:10;-18.15;49.98
60242;SHT30;46103;52.076;113.488;2023-12-20T06:19:45;-18.06;50.17
60242;SHT30;46103;52.076;113.488;2023-12-20T06:26:33;-18.00;49.89
60242;SHT30;46103;52.076;113.488;2023-12-20T06:29:40;-18.14;50.03
60242;SHT30;46103;52.076;113.488;2023-12-20T06:32:56;-18.20;50.36
60242;SHT30;46103;52.076;113.488;2023-12-20T06:36:11;-18.07;50.81
60242;SHT30;46103;52.076;113.488;2023-12-20T06:39:30;-17.73;50.55
60242;SHT30;46103;52.076;113.488;2023-12-20T06:43:03;-17.62;49.87
60242;SHT30;46103;52.076;113.488;2023-12-20T06:46:27;-17.48;49.57
60242;SHT30;46103;52.076;113.488;2023-12-20T06:49:35;-17.06;49.47
60242;SHT30;46103;52.076;113.488;2023-12-20T06:52:43;-16.92;48.55
60242;SHT30;46103;52.076;113.488;2023-12-20T06:55:51;-16.61;48.80
60242;SHT30;46103;52.076;113.488;2023-12-20T06:59:38;-16.40;48.58
60242;SHT30;46103;52.076;113.488;2023-12-20T07:03:12;-16.13;48.33
60242;SHT30;46103;52.076;113.488;2023-12-20T07:06:37;-16.07;47.23
60242;SHT30;46103;52.076;113.488;2023-12-20T07:09:59;-16.00;47.36
60242;SHT30;46103;52.076;113.488;2023-12-20T07:13:18;-15.89;46.94
60242;SHT30;46103;52.076;113.488;2023-12-20T07:16:48;-15.87;47.08
60242;SHT30;46103;52.076;113.488;2023-12-20T07:21:02;-15.83;46.92
60242;SHT30;46103;52.076;113.488;2023-12-20T07:24:51;-15.95;47.34
60242;SHT30;46103;52.076;113.488;2023-12-20T07:28:41;-16.69;47.55
60242;SHT30;46103;52.076;113.488;2023-12-20T07:32:33;-16.71;48.55
60242;SHT30;46103;52.076;113.488;2023-12-20T07:36:24;-16.68;48.73
60242;SHT30;46103;52.076;113.488;2023-12-20T07:40:07;-16.79;48.60
60242;SHT30;46103;52.076;113.488;2023-12-20T07:43:57;-16.76;48.97
60242;SHT30;46103;52.076;113.488;2023-12-20T07:47:49;-16.66;48.94
60242;SHT30;46103;52.076;113.488;2023-12-20T07:51:35;-16.65;49.21
60242;SHT30;46103;52.076;113.488;2023-12-20T07:55:15;-16.56;49.31
60242;SHT30;46103;52.076;113.488;2023-12-20T07:59:12;-17.03;49.24
60242;SHT30;46103;52.076;113.488;2023-12-20T08:02:48;-17.32;50.40
60242;SHT30;46103;52.076;113.488;2023-12-20T08:06:04;-17.30;50.89
60242;SHT30;46103;52.076;113.488;2023-12-20T08:09:18;-17.30;50.97
60242;SHT30;46103;52.076;113.488;2023-12-20T08:12:29;-17.41;51.18
60242;SHT30;46103;52.076;113.488;2023-12-20T08:16:37;-17.77;51.59
60242;SHT30;46103;52.076;113.488;2023-12-20T08:20:21;-17.98;52.30
60242;SHT30;46103;52.076;113.488;2023-12-20T08:23:53;-18.41;52.77
60242;SHT30;46103;52.076;113.488;2023-12-20T08:27:40;-18.73;54.22
60242;SHT30;46103;52.076;113.488;2023-12-20T08:31:00;-18.81;54.20
60242;SHT30;46103;52.076;113.488;2023-12-20T08:34:42;-18.87;54.27
60242;SHT30;46103;52.076;113.488;2023-12-20T08:38:02;-18.91;55.10
60242;SHT30;46103;52.076;113.488;2023-12-20T08:49:09;-19.52;56.48
60242;SHT30;46103;52.076;113.488;2023-12-20T08:52:46;-19.59;56.88
60242;SHT30;46103;52.076;113.488;2023-12-20T08:56:45;-19.62;57.06
60242;SHT30;46103;52.076;113.488;2023-12-20T09:00:25;-19.79;57.07
60242;SHT30;46103;52.076;113.488;2023-12-20T09:03:45;-19.84;57.33
60242;SHT30;46103;52.076;113.488;2023-12-20T09:07:01;-20.02;57.51
60242;SHT30;46103;52.076;113.488;2023-12-20T09:10:21;-20.17;58.25
60242;SHT30;46103;52.076;113.488;2023-12-20T09:13:49;-20.21;58.60
60242;SHT30;46103;52.076;113.488;2023-12-20T09:17:24;-20.28;58.54
60242;SHT30;46103;52.076;113.488;2023-12-20T09:20:29;-20.22;58.67
60242;SHT30;46103;52.076;113.488;2023-12-20T09:23:35;-20.26;58.65
60242;SHT30;46103;52.076;113.488;2023-12-20T09:26:45;-20.29;58.62
60242;SHT30;46103;52.076;113.488;2023-12-20T09:29:55;-20.26;58.60
60242;SHT30;46103;52.076;113.488;2023-12-20T09:33:40;-20.33;58.47
60242;SHT30;46103;52.076;113.488;2023-12-20T09:36:52;-20.43;58.56
60242;SHT30;46103;52.076;113.488;2023-12-20T09:40:10;-20.46;58.65
60242;SHT30;46103;52.076;113.488;2023-12-20T09:43:24;-20.53;58.70
60242;SHT30;46103;52.076;113.488;2023-12-20T09:46:43;-20.68;58.88
60242;SHT30;46103;52.076;113.488;2023-12-20T09:50:31;-20.88;59.42
60242;SHT30;46103;52.076;113.488;2023-12-20T09:53:42;-21.02;59.95
60242;SHT30;46103;52.076;113.488;2023-12-20T09:57:06;-21.09;60.43
60242;SHT30;46103;52.076;113.488;2023-12-20T10:00:36;-21.18;60.49
60242;SHT30;46103;52.076;113.488;2023-12-20T10:04:15;-21.34;60.89
60242;SHT30;46103;52.076;113.488;2023-12-20T10:08:14;-21.49;61.34
60242;SHT30;46103;52.076;113.488;2023-12-20T10:12:07;-21.57;61.64
60242;SHT30;46103;52.076;113.488;2023-12-20T10:15:56;-21.63;62.08
60242;SHT30;46103;52.076;113.488;2023-12-20T10:19:19;-21.67;62.01
60242;SHT30;46103;52.076;113.488;2023-12-20T10:22:28;-21.68;62.58
60242;SHT30;46103;52.076;113.488;2023-12-20T10:25:58;-21.60;62.82
60242;SHT30;46103;52.076;113.488;2023-12-20T10:29:18;-21.50;62.64
60242;SHT30;46103;52.076;113.488;2023-12-20T10:33:07;-21.43;62.48
60242;SHT30;46103;52.076;113.488;2023-12-20T10:36:54;-21.36;62.28
60242;SHT30;46103;52.076;113.488;2023-12-20T10:40:42;-21.27;62.33
60242;SHT30;46103;52.076;113.488;2023-12-20T10:44:23;-21.23;62.17
60242;SHT30;46103;52.076;113.488;2023-12-20T10:48:31;-21.19;62.01
60242;SHT30;46103;52.076;113.488;2023-12-20T10:52:09;-21.13;62.01
60242;SHT30;46103;52.076;113.488;2023-12-20T10:55:20;-21.13;62.03
60242;SHT30;46103;52.076;113.488;2023-12-20T10:58:30;-21.20;61.84
60242;SHT30;46103;52.076;113.488;2023-12-20T11:01:38;-21.29;61.78
60242;SHT30;46103;52.076;113.488;2023-12-20T11:07:55;-21.55;62.19
60242;SHT30;46103;52.076;113.488;2023-12-20T11:11:33;-21.65;62.50
60242;SHT30;46103;52.076;113.488;2023-12-20T11:14:50;-21.64;62.67
60242;SHT30;46103;52.076;113.488;2023-12-20T11:17:56;-21.72;62.73
60242;SHT30;46103;52.076;113.488;2023-12-20T11:21:04;-21.86;62.77
60242;SHT30;46103;52.076;113.488;2023-12-20T11:24:19;-21.91;63.07
60242;SHT30;46103;52.076;113.488;2023-12-20T11:27:25;-21.92;62.90
60242;SHT30;46103;52.076;113.488;2023-12-20T11:31:01;-21.98;62.82
60242;SHT30;46103;52.076;113.488;2023-12-20T11:34:13;-22.05;62.76
60242;SHT30;46103;52.076;113.488;2023-12-20T11:37:20;-22.19;62.82
60242;SHT30;46103;52.076;113.488;2023-12-20T11:40:26;-22.23;63.04
60242;SHT30;46103;52.076;113.488;2023-12-20T11:43:35;-22.30;63.05
60242;SHT30;46103;52.076;113.488;2023-12-20T11:46:56;-22.41;62.97
60242;SHT30;46103;52.076;113.488;2023-12-20T11:50:00;-22.44;63.25
60242;SHT30;46103;52.076;113.488;2023-12-20T11:53:11;-22.54;63.30
60242;SHT30;46103;52.076;113.488;2023-12-20T11:56:20;-22.56;63.53
60242;SHT30;46103;52.076;113.488;2023-12-20T11:59:24;-22.60;63.60
60242;SHT30;46103;52.076;113.488;2023-12-20T12:02:30;-22.57;63.88
60242;SHT30;46103;52.076;113.488;2023-12-20T12:05:35;-22.54;63.76
60242;SHT30;46103;52.076;113.488;2023-12-20T12:08:49;-22.57;63.75
60242;SHT30;46103;52.076;113.488;2023-12-20T12:11:54;-22.53;63.87
60242;SHT30;46103;52.076;113.488;2023-12-20T12:15:04;-22.51;63.76
60242;SHT30;46103;52.076;113.488;2023-12-20T12:18:09;-22.57;63.58
60242;SHT30;46103;52.076;113.488;2023-12-20T12:21:20;-22.63;63.53
60242;SHT30;46103;52.076;113.488;2023-12-20T12:24:31;-22.68;63.69
60242;SHT30;46103;52.076;113.488;2023-12-20T12:27:36;-22.63;63.68
60242;SHT30;46103;52.076;113.488;2023-12-20T12:30:57;-22.69;63.50
60242;SHT30;46103;52.076;113.488;2023-12-20T12:34:01;-22.71;63.55
60242;SHT30;46103;52.076;113.488;2023-12-20T12:37:06;-22.63;64.06
60242;SHT30;46103;52.076;113.488;2023-12-20T12:40:15;-22.53;64.38
60242;SHT30;46103;52.076;113.488;2023-12-20T12:43:29;-22.53;64.19
60242;SHT30;46103;52.076;113.488;2023-12-20T12:46:39;-22.47;64.13
60242;SHT30;46103;52.076;113.488;2023-12-20T12:49:44;-22.48;64.03
60242;SHT30;46103;52.076;113.488;2023-12-20T12:53:04;-22.46;64.12
60242;SHT30;46103;52.076;113.488;2023-12-20T12:56:13;-22.34;64.26
60242;SHT30;46103;52.076;113.488;2023-12-20T12:59:20;-22.32;64.28
60242;SHT30;46103;52.076;113.488;2023-12-20T13:02:29;-22.28;63.87
60242;SHT30;46103;52.076;113.488;2023-12-20T13:05:45;-22.23;63.56
60242;SHT30;46103;52.076;113.488;2023-12-20T13:08:58;-22.30;63.33
60242;SHT30;46103;52.076;113.488;2023-12-20T13:12:03;-22.36;63.27
60242;SHT30;46103;52.076;113.488;2023-12-20T13:15:07;-22.40;63.81
60242;SHT30;46103;52.076;113.488;2023-12-20T13:18:12;-22.39;63.80
60242;SHT30;46103;52.076;113.488;2023-12-20T13:21:16;-22.43;63.80
60242;SHT30;46103;52.076;113.488;2023-12-20T13:24:20;-22.41;63.98
60242;SHT30;46103;52.076;113.488;2023-12-20T13:27:24;-22.43;63.94
60242;SHT30;46103;52.076;113.488;2023-12-20T13:30:28;-22.36;63.70
60242;SHT30;46103;52.076;113.488;2023-12-20T13:33:35;-22.29;63.54
60242;SHT30;46103;52.076;113.488;2023-12-20T13:36:40;-22.34;63.34
60242;SHT30;46103;52.076;113.488;2023-12-20T13:39:44;-22.39;63.42
60242;SHT30;46103;52.076;113.488;2023-12-20T13:42:48;-22.50;63.49
60242;SHT30;46103;52.076;113.488;2023-12-20T13:45:53;-22.53;63.72
60242;SHT30;46103;52.076;113.488;2023-12-20T13:48:57;-22.54;63.66
60242;SHT30;46103;52.076;113.488;2023-12-20T13:52:01;-22.54;63.67
60242;SHT30;46103;52.076;113.488;2023-12-20T13:55:08;-22.61;63.63
60242;SHT30;46103;52.076;113.488;2023-12-20T13:58:12;-22.68;63.65
60242;SHT30;46103;52.076;113.488;2023-12-20T14:01:17;-22.68;63.73
60242;SHT30;46103;52.076;113.488;2023-12-20T14:04:22;-22.75;63.69
60242;SHT30;46103;52.076;113.488;2023-12-20T14:07:44;-22.79;63.87
60242;SHT30;46103;52.076;113.488;2023-12-20T14:10:48;-22.72;64.06
60242;SHT30;46103;52.076;113.488;2023-12-20T14:13:54;-22.69;64.08
60242;SHT30;46103;52.076;113.488;2023-12-20T14:17:01;-22.65;64.05
60242;SHT30;46103;52.076;113.488;2023-12-20T14:20:13;-22.58;64.01
60242;SHT30;46103;52.076;113.488;2023-12-20T14:23:53;-22.51;63.98
60242;SHT30;46103;52.076;113.488;2023-12-20T14:27:08;-22.53;63.87
60242;SHT30;46103;52.076;113.488;2023-12-20T14:30:34;-22.44;63.70
60242;SHT30;46103;52.076;113.488;2023-12-20T14:33:45;-22.43;63.68
60242;SHT30;46103;52.076;113.488;2023-12-20T14:36:56;-22.48;63.58
60242;SHT30;46103;52.076;113.488;2023-12-20T14:40:09;-22.53;63.70
60242;SHT30;46103;52.076;113.488;2023-12-20T14:43:24;-22.56;63.58
60242;SHT30;46103;52.076;113.488;2023-12-20T14:57:17;-22.95;63.92
60242;SHT30;46103;52.076;113.488;2023-12-20T15:00:28;-23.02;63.83
60242;SHT30;46103;52.076;113.488;2023-12-20T15:03:56;-23.10;64.12
60242;SHT30;46103;52.076;113.488;2023-12-20T15:13:58;-23.10;64.59
60242;SHT30;46103;52.076;113.488;2023-12-20T15:17:04;-23.06;64.47
60242;SHT30;46103;52.076;113.488;2023-12-20T15:20:12;-23.09;64.42
60242;SHT30;46103;52.076;113.488;2023-12-20T15:23:24;-23.09;64.57
60242;SHT30;46103;52.076;113.488;2023-12-20T15:26:44;-23.13;64.61
60242;SHT30;46103;52.076;113.488;2023-12-20T15:29:56;-23.12;64.53
60242;SHT30;46103;52.076;113.488;2023-12-20T15:33:06;-23.10;64.50
60242;SHT30;46103;52.076;113.488;2023-12-20T15:36:17;-23.15;64.46
60242;SHT30;46103;52.076;113.488;2023-12-20T15:39:26;-23.13;64.57
60242;SHT30;46103;52.076;113.488;2023-12-20T15:42:39;-23.22;64.53
60242;SHT30;46103;52.076;113.488;2023-12-20T15:45:50;-23.20;64.62
60242;SHT30;46103;52.076;113.488;2023-12-20T15:49:01;-23.17;64.50
60242;SHT30;46103;52.076;113.488;2023-12-20T15:52:12;-23.19;64.64
60242;SHT30;46103;52.076;113.488;2023-12-20T15:55:23;-23.28;64.75
60242;SHT30;46103;52.076;113.488;2023-12-20T15:58:34;-23.26;65.01
60242;SHT30;46103;52.076;113.488;2023-12-20T16:01:46;-23.23;65.19
60242;SHT30;46103;52.076;113.488;2023-12-20T16:04:58;-23.23;65.17
60242;SHT30;46103;52.076;113.488;2023-12-20T16:08:10;-23.26;65.41
60242;SHT30;46103;52.076;113.488;2023-12-20T16:11:20;-23.28;65.47
60242;SHT30;46103;52.076;113.488;2023-12-20T16:14:32;-23.28;65.41
60242;SHT30;46103;52.076;113.488;2023-12-20T16:17:45;-23.33;65.24
60242;SHT30;46103;52.076;113.488;2023-12-20T16:20:56;-23.33;65.39
60242;SHT30;46103;52.076;113.488;2023-12-20T16:24:09;-23.33;65.57
60242;SHT30;46103;52.076;113.488;2023-12-20T16:27:20;-23.33;65.67
60242;SHT30;46103;52.076;113.488;2023-12-20T16:30:30;-23.34;65.65
60242;SHT30;46103;52.076;113.488;2023-12-20T16:33:42;-23.30;65.76
60242;SHT30;46103;52.076;113.488;2023-12-20T16:36:52;-23.27;65.56
60242;SHT30;46103;52.076;113.488;2023-12-20T16:40:07;-23.23;65.45
60242;SHT30;46103;52.076;113.488;2023-12-20T16:43:16;-23.23;65.36
60242;SHT30;46103;52.076;113.488;2023-12-20T16:46:25;-23.27;65.37
60242;SHT30;46103;52.076;113.488;2023-12-20T16:49:35;-23.36;65.48
60242;SHT30;46103;52.076;113.488;2023-12-20T16:52:45;-23.33;65.55
60242;SHT30;46103;52.076;113.488;2023-12-20T16:56:02;-23.26;65.57
60242;SHT30;46103;52.076;113.488;2023-12-20T16:59:11;-23.24;65.59
60242;SHT30;46103;52.076;113.488;2023-12-20T17:02:21;-23.22;65.70
60242;SHT30;46103;52.076;113.488;2023-12-20T17:05:31;-23.19;65.50
60242;SHT30;46103;52.076;113.488;2023-12-20T17:08:42;-23.22;65.47
60242;SHT30;46103;52.076;113.488;2023-12-20T17:11:53;-23.23;65.34
60242;SHT30;46103;52.076;113.488;2023-12-20T17:15:03;-23.16;65.37
60242;SHT30;46103;52.076;113.488;2023-12-20T17:18:14;-23.12;65.15
60242;SHT30;46103;52.076;113.488;2023-12-20T17:21:25;-23.12;65.05
60242;SHT30;46103;52.076;113.488;2023-12-20T17:24:36;-23.10;64.92
60242;SHT30;46103;52.076;113.488;2023-12-20T17:27:46;-23.09;64.92
60242;SHT30;46103;52.076;113.488;2023-12-20T17:30:56;-23.10;64.77
60242;SHT30;46103;52.076;113.488;2023-12-20T17:34:08;-23.10;64.72
60242;SHT30;46103;52.076;113.488;2023-12-20T17:37:21;-23.09;64.77
60242;SHT30;46103;52.076;113.488;2023-12-20T17:40:32;-23.12;64.70
60242;SHT30;46103;52.076;113.488;2023-12-20T17:43:46;-23.16;64.76
60242;SHT30;46103;52.076;113.488;2023-12-20T17:46:57;-23.17;64.85
60242;SHT30;46103;52.076;113.488;2023-12-20T17:50:09;-23.24;64.84
60242;SHT30;46103;52.076;113.488;2023-12-20T17:53:21;-23.30;64.96
60242;SHT30;46103;52.076;113.488;2023-12-20T17:56:31;-23.28;65.16
60242;SHT30;46103;52.076;113.488;2023-12-20T17:59:41;-23.33;65.06
60242;SHT30;46103;52.076;113.488;2023-12-20T18:02:52;-23.34;65.24
60242;SHT30;46103;52.076;113.488;2023-12-20T18:06:03;-23.36;65.18
60242;SHT30;46103;52.076;113.488;2023-12-20T18:09:14;-23.34;65.46
60242;SHT30;46103;52.076;113.488;2023-12-20T18:12:24;-23.33;65.49
60242;SHT30;46103;52.076;113.488;2023-12-20T18:15:35;-23.33;65.46
60242;SHT30;46103;52.076;113.488;2023-12-20T18:18:45;-23.38;65.36
60242;SHT30;46103;52.076;113.488;2023-12-20T18:21:56;-23.34;65.27
60242;SHT30;46103;52.076;113.488;2023-12-20T18:25:08;-23.40;65.18
60242;SHT30;46103;52.076;113.488;2023-12-20T18:28:19;-23.41;65.24
60242;SHT30;46103;52.076;113.488;2023-12-20T18:31:30;-23.30;65.37
60242;SHT30;46103;52.076;113.488;2023-12-20T18:34:41;-23.33;65.23
60242;SHT30;46103;52.076;113.488;2023-12-20T18:37:58;-23.36;65.15
60242;SHT30;46103;52.076;113.488;2023-12-20T18:41:10;-23.27;65.45
60242;SHT30;46103;52.076;113.488;2023-12-20T18:44:22;-23.24;65.28
60242;SHT30;46103;52.076;113.488;2023-12-20T18:47:33;-23.27;65.20
60242;SHT30;46103;52.076;113.488;2023-12-20T18:50:43;-23.27;65.15
60242;SHT30;46103;52.076;113.488;2023-12-20T18:53:54;-23.26;65.37
60242;SHT30;46103;52.076;113.488;2023-12-20T18:57:05;-23.24;65.31
60242;SHT30;46103;52.076;113.488;2023-12-20T19:00:17;-23.23;65.05
60242;SHT30;46103;52.076;113.488;2023-12-20T19:03:26;-23.26;64.90
60242;SHT30;46103;52.076;113.488;2023-12-20T19:06:36;-23.30;64.97
60242;SHT30;46103;52.076;113.488;2023-12-20T19:09:46;-23.31;65.07
60242;SHT30;46103;52.076;113.488;2023-12-20T19:12:55;-23.30;64.85
60242;SHT30;46103;52.076;113.488;2023-12-20T19:16:06;-23.41;64.85
60242;SHT30;46103;52.076;113.488;2023-12-20T19:19:18;-23.40;65.14
60242;SHT30;46103;52.076;113.488;2023-12-20T19:22:29;-23.41;65.17
60242;SHT30;46103;52.076;113.488;2023-12-20T19:25:41;-23.50;65.26
60242;SHT30;46103;52.076;113.488;2023-12-20T19:28:51;-23.50;65.17
60242;SHT30;46103;52.076;113.488;2023-12-20T19:32:02;-23.51;65.13
60242;SHT30;46103;52.076;113.488;2023-12-20T19:35:12;-23.53;65.31
60242;SHT30;46103;52.076;113.488;2023-12-20T19:38:23;-23.55;65.29
60242;SHT30;46103;52.076;113.488;2023-12-20T19:41:33;-23.51;65.27
60242;SHT30;46103;52.076;113.488;2023-12-20T19:44:41;-23.57;65.18
60242;SHT30;46103;52.076;113.488;2023-12-20T19:47:54;-23.57;65.18
60242;SHT30;46103;52.076;113.488;2023-12-20T19:51:05;-23.55;65.21
60242;SHT30;46103;52.076;113.488;2023-12-20T19:54:13;-23.61;65.23
60242;SHT30;46103;52.076;113.488;2023-12-20T19:57:27;-23.59;65.33
60242;SHT30;46103;52.076;113.488;2023-12-20T20:00:35;-23.58;65.33
60242;SHT30;46103;52.076;113.488;2023-12-20T20:04:00;-23.59;65.24
60242;SHT30;46103;52.076;113.488;2023-12-20T20:07:13;-23.59;65.37
60242;SHT30;46103;52.076;113.488;2023-12-20T20:10:28;-23.57;65.40
60242;SHT30;46103;52.076;113.488;2023-12-20T20:13:44;-23.55;65.31
60242;SHT30;46103;52.076;113.488;2023-12-20T20:16:56;-23.55;65.34